sensor_id;sensor_type;location;lat;lon;timestamp;pressure;altitude;pressure_sealevel;temperature;humidity
20077;BME280;12348;42.710;23.378;2024-03-06T00:00:36;94880.44;;;3.77;100.00
20077;BME280;12348;42.710;23.378;2024-03-06T00:03:04;94881.03;;;3.84;100.00
20077;BME280;12348;42.710;23.378;2024-03-06T00:05:30;94879.63;;;3.76;100.00
20077;BME280;12348;42.710;23.378;2024-03-06T00:07:57;94883.84;;;3.72;100.00
20077;BME280;12348;42.710;23.378;2024-03-06T00:10:27;94882.50;;;3.70;100.00
20077;BME280;12348;42.710;23.378;2024-03-06T00:12:53;94883.63;;;3.74;100.00
20077;BME280;12348;42.710;23.378;2024-03-06T00:15:20;94881.25;;;3.77;100.00
20077;BME280;12348;42.710;23.378;2024-03-06T00:17:47;94880.50;;;3.82;100.00
20077;BME280;12348;42.710;23.378;2024-03-06T00:20:14;94881.28;;;3.82;100.00
20077;BME280;12348;42.710;23.378;2024-03-06T00:22:42;94873.03;;;3.84;100.00
20077;BME280;12348;42.710;23.378;2024-03-06T00:25:09;94872.50;;;3.82;100.00
20077;BME280;12348;42.710;23.378;2024-03-06T00:27:37;94879.69;;;3.81;100.00
20077;BME280;12348;42.710;23.378;2024-03-06T00:30:05;94877.41;;;3.95;100.00
20077;BME280;12348;42.710;23.378;2024-03-06T00:32:32;94885.38;;;3.95;100.00
20077;BME280;12348;42.710;23.378;2024-03-06T00:34:59;94872.13;;;4.00;100.00
20077;BME280;12348;42.710;23.378;2024-03-06T00:37:26;94879.13;;;4.11;100.00
20077;BME280;12348;42.710;23.378;2024-03-06T00:39:52;94878.38;;;4.16;100.00
20077;BME280;12348;42.710;23.378;2024-03-06T00:42:19;94885.28;;;4.12;100.00
20077;BME280;12348;42.710;23.378;2024-03-06T00:44:48;94888.44;;;4.09;100.00
20077;BME280;12348;42.710;23.378;2024-03-06T00:47:14;94890.00;;;4.05;100.00
20077;BME280;12348;42.710;23.378;2024-03-06T00:49:41;94891.28;;;3.97;100.00
20077;BME280;12348;42.710;23.378;2024-03-06T00:52:08;94899.84;;;4.04;100.00
20077;BME280;12348;42.710;23.378;2024-03-06T00:54:35;94905.44;;;4.03;100.00
20077;BME280;12348;42.710;23.378;2024-03-06T00:57:01;94900.34;;;3.96;100.00
20077;BME280;12348;42.710;23.378;2024-03-06T00:59:28;94897.00;;;3.84;100.00
20077;BME280;12348;42.710;23.378;2024-03-06T01:01:56;94895.59;;;3.76;100.00
20077;BME280;12348;42.710;23.378;2024-03-06T01:04:23;94896.72;;;3.80;100.00
20077;BME280;12348;42.710;23.378;2024-03-06T01:06:50;94892.66;;;3.73;100.00
20077;BME280;12348;42.710;23.378;2024-03-06T01:09:17;94891.44;;;3.58;100.00
20077;BME280;12348;42.710;23.378;2024-03-06T01:11:43;94893.09;;;3.37;100.00
20077;BME280;12348;42.710;23.378;2024-03-06T01:14:13;94901.31;;;3.36;100.00
20077;BME280;12348;42.710;23.378;2024-03-06T01:16:40;94900.03;;;3.38;100.00
20077;BME280;12348;42.710;23.378;2024-03-06T01:19:08;94901.53;;;3.29;100.00
20077;BME280;12348;42.710;23.378;2024-03-06T01:21:34;94896.00;;;3.36;100.00
20077;BME280;12348;42.710;23.378;2024-03-06T01:24:01;94896.88;;;3.42;100.00
20077;BME280;12348;42.710;23.378;2024-03-06T01:26:27;94897.03;;;3.30;100.00
20077;BME280;12348;42.710;23.378;2024-03-06T01:28:54;94905.75;;;3.25;100.00
20077;BME280;12348;42.710;23.378;2024-03-06T01:31:21;94902.34;;;3.30;100.00
20077;BME280;12348;42.710;23.378;2024-03-06T01:33:47;94903.31;;;3.24;100.00
20077;BME280;12348;42.710;23.378;2024-03-06T01:36:15;94901.41;;;3.19;100.00
20077;BME280;12348;42.710;23.378;2024-03-06T01:38:42;94900.03;;;3.16;100.00
20077;BME280;12348;42.710;23.378;2024-03-06T01:41:11;94888.44;;;3.01;100.00
20077;BME280;12348;42.710;23.378;2024-03-06T01:43:38;94904.34;;;2.96;100.00
20077;BME280;12348;42.710;23.378;2024-03-06T01:46:05;94898.13;;;2.90;100.00
20077;BME280;12348;42.710;23.378;2024-03-06T01:48:32;94900.75;;;2.85;100.00
20077;BME280;12348;42.710;23.378;2024-03-06T01:51:00;94906.09;;;2.68;100.00
20077;BME280;12348;42.710;23.378;2024-03-06T01:53:32;94901.84;;;2.67;100.00
20077;BME280;12348;42.710;23.378;2024-03-06T01:56:00;94899.34;;;2.60;100.00
20077;BME280;12348;42.710;23.378;2024-03-06T01:58:29;94899.78;;;2.52;100.00
20077;BME280;12348;42.710;23.378;2024-03-06T02:00:57;94908.22;;;2.49;100.00
20077;BME280;12348;42.710;23.378;2024-03-06T02:03:25;94899.44;;;2.49;100.00
20077;BME280;12348;42.710;23.378;2024-03-06T02:05:52;94911.31;;;2.41;100.00
20077;BME280;12348;42.710;23.378;2024-03-06T02:08:19;94915.28;;;2.22;100.00
20077;BME280;12348;42.710;23.378;2024-03-06T02:10:47;94921.88;;;2.02;100.00
20077;BME280;12348;42.710;23.378;2024-03-06T02:13:14;94924.19;;;1.99;100.00
20077;BME280;12348;42.710;23.378;2024-03-06T02:15:41;94926.22;;;1.91;100.00
20077;BME280;12348;42.710;23.378;2024-03-06T02:18:08;94923.22;;;1.88;100.00
20077;BME280;12348;42.710;23.378;2024-03-06T02:20:37;94925.31;;;1.86;100.00
20077;BME280;12348;42.710;23.378;2024-03-06T02:23:05;94926.81;;;1.82;100.00
20077;BME280;12348;42.710;23.378;2024-03-06T02:25:32;94925.78;;;1.83;100.00
20077;BME280;12348;42.710;23.378;2024-03-06T02:27:59;94929.97;;;1.79;100.00
20077;BME280;12348;42.710;23.378;2024-03-06T02:30:26;94932.72;;;1.84;100.00
20077;BME280;12348;42.710;23.378;2024-03-06T02:32:53;94929.97;;;1.79;100.00
20077;BME280;12348;42.710;23.378;2024-03-06T02:35:19;94936.72;;;1.69;100.00
20077;BME280;12348;42.710;23.378;2024-03-06T02:37:47;94934.84;;;1.70;100.00
20077;BME280;12348;42.710;23.378;2024-03-06T02:40:14;94935.66;;;1.70;100.00
20077;BME280;12348;42.710;23.378;2024-03-06T02:42:41;94940.56;;;1.79;100.00
20077;BME280;12348;42.710;23.378;2024-03-06T02:45:08;94943.81;;;1.81;100.00
20077;BME280;12348;42.710;23.378;2024-03-06T02:47:35;94937.69;;;1.80;100.00
20077;BME280;12348;42.710;23.378;2024-03-06T02:50:02;94939.38;;;1.86;100.00
20077;BME280;12348;42.710;23.378;2024-03-06T02:52:30;94940.75;;;1.89;100.00
20077;BME280;12348;42.710;23.378;2024-03-06T02:54:58;94930.88;;;1.84;100.00
20077;BME280;12348;42.710;23.378;2024-03-06T02:57:26;94934.91;;;1.87;100.00
20077;BME280;12348;42.710;23.378;2024-03-06T02:59:53;94927.97;;;1.86;100.00
20077;BME280;12348;42.710;23.378;2024-03-06T03:02:20;94932.72;;;1.84;100.00
20077;BME280;12348;42.710;23.378;2024-03-06T03:04:47;94927.47;;;1.89;100.00
20077;BME280;12348;42.710;23.378;2024-03-06T03:07:14;94933.69;;;1.94;100.00
20077;BME280;12348;42.710;23.378;2024-03-06T03:09:40;94932.25;;;1.87;100.00
20077;BME280;12348;42.710;23.378;2024-03-06T03:12:09;94930.38;;;1.87;100.00
20077;BME280;12348;42.710;23.378;2024-03-06T03:14:36;94945.50;;;1.87;100.00
20077;BME280;12348;42.710;23.378;2024-03-06T03:17:04;94939.78;;;1.78;100.00
20077;BME280;12348;42.710;23.378;2024-03-06T03:19:31;94937.16;;;1.95;100.00
20077;BME280;12348;42.710;23.378;2024-03-06T03:21:58;94943.16;;;1.90;100.00
20077;BME280;12348;42.710;23.378;2024-03-06T03:24:25;94947.41;;;1.75;100.00
20077;BME280;12348;42.710;23.378;2024-03-06T03:26:52;94942.69;;;1.77;100.00
20077;BME280;12348;42.710;23.378;2024-03-06T03:29:20;94942.22;;;1.80;100.00
20077;BME280;12348;42.710;23.378;2024-03-06T03:31:47;94943.00;;;1.80;100.00
20077;BME280;12348;42.710;23.378;2024-03-06T03:34:14;94946.47;;;1.81;100.00
20077;BME280;12348;42.710;23.378;2024-03-06T03:36:41;94952.56;;;1.81;100.00
20077;BME280;12348;42.710;23.378;2024-03-06T03:39:07;94950.25;;;1.85;100.00
20077;BME280;12348;42.710;23.378;2024-03-06T03:41:43;94948.97;;;2.04;100.00
20077;BME280;12348;42.710;23.378;2024-03-06T03:44:11;94959.09;;;1.90;100.00
20077;BME280;12348;42.710;23.378;2024-03-06T03:46:40;94966.34;;;1.95;100.00
20077;BME280;12348;42.710;23.378;2024-03-06T03:49:07;94950.56;;;1.88;100.00
20077;BME280;12348;42.710;23.378;2024-03-06T03:51:35;94957.25;;;1.91;100.00
20077;BME280;12348;42.710;23.378;2024-03-06T03:54:02;94956.69;;;1.89;100.00
20077;BME280;12348;42.710;23.378;2024-03-06T03:56:29;94955.41;;;1.91;100.00
20077;BME280;12348;42.710;23.378;2024-03-06T03:58:56;94962.47;;;1.86;100.00
20077;BME280;12348;42.710;23.378;2024-03-06T04:01:22;94960.56;;;1.98;100.00
20077;BME280;12348;42.710;23.378;2024-03-06T04:03:50;94961.38;;;1.99;100.00
20077;BME280;12348;42.710;23.378;2024-03-06T04:06:17;94966.50;;;1.88;100.00
20077;BME280;12348;42.710;23.378;2024-03-06T04:08:45;94959.09;;;1.90;100.00
20077;BME280;12348;42.710;23.378;2024-03-06T04:11:11;94953.56;;;1.92;100.00
20077;BME280;12348;42.710;23.378;2024-03-06T04:13:38;94960.72;;;1.91;100.00
20077;BME280;12348;42.710;23.378;2024-03-06T04:16:05;94965.69;;;1.88;100.00
20077;BME280;12348;42.710;23.378;2024-03-06T04:18:33;94970.75;;;1.89;100.00
20077;BME280;12348;42.710;23.378;2024-03-06T04:21:04;94971.47;;;1.85;100.00
20077;BME280;12348;42.710;23.378;2024-03-06T04:23:31;94970.91;;;1.83;100.00
20077;BME280;12348;42.710;23.378;2024-03-06T04:25:59;94988.84;;;1.76;100.00
20077;BME280;12348;42.710;23.378;2024-03-06T04:28:25;94984.56;;;1.75;100.00
20077;BME280;12348;42.710;23.378;2024-03-06T04:30:52;94988.25;;;1.74;100.00
20077;BME280;12348;42.710;23.378;2024-03-06T04:33:19;94987.66;;;1.83;100.00
20077;BME280;12348;42.710;23.378;2024-03-06T04:35:46;94992.72;;;1.85;100.00
20077;BME280;12348;42.710;23.378;2024-03-06T04:38:14;94989.72;;;1.81;100.00
20077;BME280;12348;42.710;23.378;2024-03-06T04:40:41;94994.47;;;1.79;100.00
20077;BME280;12348;42.710;23.378;2024-03-06T04:43:07;94996.97;;;1.86;100.00
20077;BME280;12348;42.710;23.378;2024-03-06T04:45:34;94995.78;;;1.93;100.00
20077;BME280;12348;42.710;23.378;2024-03-06T04:48:01;95005.41;;;1.83;100.00
20077;BME280;12348;42.710;23.378;2024-03-06T04:50:28;94994.78;;;1.83;100.00
20077;BME280;12348;42.710;23.378;2024-03-06T04:52:55;95006.59;;;1.75;100.00
20077;BME280;12348;42.710;23.378;2024-03-06T04:55:23;95006.50;;;1.70;100.00
20077;BME280;12348;42.710;23.378;2024-03-06T04:57:52;95002.34;;;1.74;100.00
20077;BME280;12348;42.710;23.378;2024-03-06T05:00:19;95007.44;;;1.92;100.00
20077;BME280;12348;42.710;23.378;2024-03-06T05:02:46;95008.69;;;2.02;100.00
20077;BME280;12348;42.710;23.378;2024-03-06T05:05:14;95001.59;;;2.07;100.00
20077;BME280;12348;42.710;23.378;2024-03-06T05:07:41;95008.03;;;1.94;100.00
20077;BME280;12348;42.710;23.378;2024-03-06T05:10:08;95003.13;;;2.03;100.00
20077;BME280;12348;42.710;23.378;2024-03-06T05:12:36;95008.28;;;2.10;100.00
20077;BME280;12348;42.710;23.378;2024-03-06T05:15:03;95010.63;;;2.23;100.00
20077;BME280;12348;42.710;23.378;2024-03-06T05:17:30;95014.19;;;2.46;100.00
20077;BME280;12348;42.710;23.378;2024-03-06T05:19:57;95017.47;;;2.86;100.00
20077;BME280;12348;42.710;23.378;2024-03-06T05:22:23;95016.59;;;3.20;100.00
20077;BME280;12348;42.710;23.378;2024-03-06T05:24:52;95016.13;;;3.23;100.00
20077;BME280;12348;42.710;23.378;2024-03-06T05:27:19;95019.03;;;3.43;100.00
20077;BME280;12348;42.710;23.378;2024-03-06T05:29:47;95016.91;;;4.16;100.00
20077;BME280;12348;42.710;23.378;2024-03-06T05:32:14;95016.88;;;5.13;100.00
20077;BME280;12348;42.710;23.378;2024-03-06T05:34:40;95020.06;;;5.57;100.00
20077;BME280;12348;42.710;23.378;2024-03-06T05:37:07;95017.38;;;6.45;100.00
20077;BME280;12348;42.710;23.378;2024-03-06T05:39:34;95026.47;;;6.85;100.00
20077;BME280;12348;42.710;23.378;2024-03-06T05:42:01;95022.75;;;6.91;100.00
20077;BME280;12348;42.710;23.378;2024-03-06T05:44:29;95031.81;;;7.05;100.00
20077;BME280;12348;42.710;23.378;2024-03-06T05:46:58;95036.06;;;7.17;100.00
20077;BME280;12348;42.710;23.378;2024-03-06T05:49:26;95040.91;;;7.04;100.00
20077;BME280;12348;42.710;23.378;2024-03-06T05:51:53;95040.91;;;7.20;100.00
20077;BME280;12348;42.710;23.378;2024-03-06T05:54:20;95053.59;;;7.89;100.00
20077;BME280;12348;42.710;23.378;2024-03-06T05:56:48;95046.41;;;7.74;100.00
20077;BME280;12348;42.710;23.378;2024-03-06T05:59:15;95049.75;;;7.25;100.00
20077;BME280;12348;42.710;23.378;2024-03-06T06:01:42;95052.44;;;6.85;100.00
20077;BME280;12348;42.710;23.378;2024-03-06T06:04:12;95058.06;;;6.63;100.00
20077;BME280;12348;42.710;23.378;2024-03-06T06:06:39;95054.75;;;6.10;100.00
20077;BME280;12348;42.710;23.378;2024-03-06T06:09:06;95055.03;;;6.13;100.00
20077;BME280;12348;42.710;23.378;2024-03-06T06:11:38;95059.66;;;7.25;100.00
20077;BME280;12348;42.710;23.378;2024-03-06T06:14:04;95050.94;;;7.79;100.00
20077;BME280;12348;42.710;23.378;2024-03-06T06:16:35;95055.09;;;8.11;100.00
20077;BME280;12348;42.710;23.378;2024-03-06T06:19:02;95055.66;;;9.31;100.00
20077;BME280;12348;42.710;23.378;2024-03-06T06:21:30;95049.06;;;9.71;100.00
20077;BME280;12348;42.710;23.378;2024-03-06T06:23:57;95051.44;;;10.20;100.00
20077;BME280;12348;42.710;23.378;2024-03-06T06:26:24;95057.06;;;9.76;100.00
20077;BME280;12348;42.710;23.378;2024-03-06T06:28:51;95062.16;;;8.90;100.00
20077;BME280;12348;42.710;23.378;2024-03-06T06:31:17;95058.00;;;8.69;100.00
20077;BME280;12348;42.710;23.378;2024-03-06T06:33:44;95056.72;;;9.30;100.00
20077;BME280;12348;42.710;23.378;2024-03-06T06:36:13;95053.00;;;8.91;100.00
20077;BME280;12348;42.710;23.378;2024-03-06T06:38:41;95060.56;;;9.47;100.00
20077;BME280;12348;42.710;23.378;2024-03-06T06:41:07;95051.78;;;10.14;98.93
20077;BME280;12348;42.710;23.378;2024-03-06T06:43:34;95053.13;;;10.92;92.68
20077;BME280;12348;42.710;23.378;2024-03-06T06:46:01;95057.63;;;10.97;87.02
20077;BME280;12348;42.710;23.378;2024-03-06T06:48:30;95047.50;;;12.14;81.52
20077;BME280;12348;42.710;23.378;2024-03-06T06:50:58;95049.00;;;12.93;77.95
20077;BME280;12348;42.710;23.378;2024-03-06T06:53:27;95055.06;;;13.34;69.51
20077;BME280;12348;42.710;23.378;2024-03-06T06:55:55;95062.56;;;12.79;73.69
20077;BME280;12348;42.710;23.378;2024-03-06T06:58:22;95061.53;;;12.52;74.38
20077;BME280;12348;42.710;23.378;2024-03-06T07:00:49;95058.38;;;12.36;75.34
20077;BME280;12348;42.710;23.378;2024-03-06T07:03:16;95062.69;;;12.10;76.91
20077;BME280;12348;42.710;23.378;2024-03-06T07:05:43;95057.97;;;12.29;75.12
20077;BME280;12348;42.710;23.378;2024-03-06T07:08:10;95058.75;;;12.16;74.83
20077;BME280;12348;42.710;23.378;2024-03-06T07:10:37;95065.28;;;12.15;77.56
20077;BME280;12348;42.710;23.378;2024-03-06T07:13:05;95068.41;;;12.95;74.64
20077;BME280;12348;42.710;23.378;2024-03-06T07:15:32;95061.41;;;13.61;70.90
20077;BME280;12348;42.710;23.378;2024-03-06T07:17:59;95054.66;;;13.05;70.17
20077;BME280;12348;42.710;23.378;2024-03-06T07:20:25;95057.38;;;13.05;70.30
20077;BME280;12348;42.710;23.378;2024-03-06T07:22:52;95058.47;;;12.81;70.87
20077;BME280;12348;42.710;23.378;2024-03-06T07:25:19;95055.28;;;12.29;75.40
20077;BME280;12348;42.710;23.378;2024-03-06T07:27:46;95051.31;;;13.75;72.14
20077;BME280;12348;42.710;23.378;2024-03-06T07:30:15;95051.47;;;15.11;61.68
20077;BME280;12348;42.710;23.378;2024-03-06T07:32:41;95053.34;;;15.45;59.78
20077;BME280;12348;42.710;23.378;2024-03-06T07:35:08;95056.72;;;15.16;61.19
20077;BME280;12348;42.710;23.378;2024-03-06T07:37:35;95048.75;;;14.76;61.56
20077;BME280;12348;42.710;23.378;2024-03-06T07:40:02;95056.78;;;13.30;66.39
20077;BME280;12348;42.710;23.378;2024-03-06T07:42:30;95060.72;;;14.26;64.24
20077;BME280;12348;42.710;23.378;2024-03-06T07:44:57;95053.22;;;15.07;59.79
20077;BME280;12348;42.710;23.378;2024-03-06T07:47:25;95054.34;;;15.14;59.84
20077;BME280;12348;42.710;23.378;2024-03-06T07:49:52;95058.34;;;15.98;57.07
20077;BME280;12348;42.710;23.378;2024-03-06T07:52:19;95051.13;;;15.30;58.31
20077;BME280;12348;42.710;23.378;2024-03-06T07:54:46;95056.38;;;16.08;58.02
20077;BME280;12348;42.710;23.378;2024-03-06T07:57:13;95056.66;;;16.15;56.58
20077;BME280;12348;42.710;23.378;2024-03-06T07:59:39;95049.91;;;15.91;55.62
20077;BME280;12348;42.710;23.378;2024-03-06T08:02:06;95055.88;;;15.59;56.95
20077;BME280;12348;42.710;23.378;2024-03-06T08:04:34;95054.97;;;16.90;54.32
20077;BME280;12348;42.710;23.378;2024-03-06T08:07:02;95052.03;;;17.16;53.58
20077;BME280;12348;42.710;23.378;2024-03-06T08:09:28;95053.84;;;17.66;52.15
20077;BME280;12348;42.710;23.378;2024-03-06T08:11:55;95058.66;;;17.28;52.10
20077;BME280;12348;42.710;23.378;2024-03-06T08:14:22;95051.94;;;16.92;53.30
20077;BME280;12348;42.710;23.378;2024-03-06T08:16:49;95044.47;;;17.88;51.10
20077;BME280;12348;42.710;23.378;2024-03-06T08:19:16;95042.00;;;18.81;49.39
20077;BME280;12348;42.710;23.378;2024-03-06T08:21:44;95049.41;;;18.20;50.33
20077;BME280;12348;42.710;23.378;2024-03-06T08:24:11;95050.22;;;17.75;50.43
20077;BME280;12348;42.710;23.378;2024-03-06T08:26:38;95040.72;;;15.49;55.94
20077;BME280;12348;42.710;23.378;2024-03-06T08:29:05;95048.38;;;16.11;55.14
20077;BME280;12348;42.710;23.378;2024-03-06T08:31:32;95036.88;;;15.76;55.99
20077;BME280;12348;42.710;23.378;2024-03-06T08:33:58;95043.47;;;14.97;59.01
20077;BME280;12348;42.710;23.378;2024-03-06T08:36:25;95047.72;;;16.14;55.81
20077;BME280;12348;42.710;23.378;2024-03-06T08:38:53;95042.28;;;15.67;57.37
20077;BME280;12348;42.710;23.378;2024-03-06T08:41:20;95045.31;;;16.81;54.25
20077;BME280;12348;42.710;23.378;2024-03-06T08:43:47;95047.38;;;17.38;52.90
20077;BME280;12348;42.710;23.378;2024-03-06T08:46:13;95053.91;;;16.83;53.13
20077;BME280;12348;42.710;23.378;2024-03-06T08:48:40;95049.09;;;17.42;52.33
20077;BME280;12348;42.710;23.378;2024-03-06T08:51:07;95046.50;;;15.04;55.76
20077;BME280;12348;42.710;23.378;2024-03-06T08:53:36;95042.09;;;16.19;54.85
20077;BME280;12348;42.710;23.378;2024-03-06T08:56:06;95039.63;;;17.61;52.13
20077;BME280;12348;42.710;23.378;2024-03-06T08:58:34;95043.59;;;16.67;53.01
20077;BME280;12348;42.710;23.378;2024-03-06T09:01:04;95042.09;;;17.87;51.89
20077;BME280;12348;42.710;23.378;2024-03-06T09:03:31;95040.63;;;17.02;53.47
20077;BME280;12348;42.710;23.378;2024-03-06T09:05:58;95040.00;;;17.72;51.82
20077;BME280;12348;42.710;23.378;2024-03-06T09:08:25;95047.16;;;17.43;52.08
20077;BME280;12348;42.710;23.378;2024-03-06T09:10:51;95046.22;;;16.85;53.57
20077;BME280;12348;42.710;23.378;2024-03-06T09:13:19;95052.53;;;16.98;52.83
20077;BME280;12348;42.710;23.378;2024-03-06T09:15:46;95040.38;;;16.95;53.24
20077;BME280;12348;42.710;23.378;2024-03-06T09:18:13;95037.88;;;17.44;51.72
20077;BME280;12348;42.710;23.378;2024-03-06T09:20:42;95037.50;;;17.12;53.06
20077;BME280;12348;42.710;23.378;2024-03-06T09:23:08;95035.72;;;17.83;52.29
20077;BME280;12348;42.710;23.378;2024-03-06T09:25:35;95035.13;;;16.90;53.38
20077;BME280;12348;42.710;23.378;2024-03-06T09:28:02;95037.91;;;15.92;55.35
20077;BME280;12348;42.710;23.378;2024-03-06T09:30:31;95031.91;;;15.61;57.77
20077;BME280;12348;42.710;23.378;2024-03-06T09:32:58;95027.03;;;17.02;55.61
20077;BME280;12348;42.710;23.378;2024-03-06T09:35:25;95024.16;;;19.24;50.56
20077;BME280;12348;42.710;23.378;2024-03-06T09:37:51;95023.34;;;19.52;48.28
20077;BME280;12348;42.710;23.378;2024-03-06T09:40:23;95011.03;;;20.69;45.38
20077;BME280;12348;42.710;23.378;2024-03-06T09:42:50;95009.03;;;20.34;46.03
20077;BME280;12348;42.710;23.378;2024-03-06T09:45:16;95012.75;;;19.78;45.60
20077;BME280;12348;42.710;23.378;2024-03-06T09:47:47;95006.00;;;19.04;46.78
20077;BME280;12348;42.710;23.378;2024-03-06T09:50:16;95006.84;;;20.24;45.00
20077;BME280;12348;42.710;23.378;2024-03-06T09:52:47;95004.44;;;20.70;44.73
20077;BME280;12348;42.710;23.378;2024-03-06T09:55:17;95007.78;;;20.63;43.64
20077;BME280;12348;42.710;23.378;2024-03-06T09:57:44;95005.47;;;19.98;44.68
20077;BME280;12348;42.710;23.378;2024-03-06T10:00:11;94999.53;;;20.79;44.08
20077;BME280;12348;42.710;23.378;2024-03-06T10:02:39;95001.38;;;20.24;44.00
20077;BME280;12348;42.710;23.378;2024-03-06T10:05:21;94991.25;;;19.05;45.44
20077;BME280;12348;42.710;23.378;2024-03-06T10:07:50;94992.09;;;18.69;46.50
20077;BME280;12348;42.710;23.378;2024-03-06T10:10:16;94978.47;;;19.53;45.07
20077;BME280;12348;42.710;23.378;2024-03-06T10:12:44;94977.50;;;18.89;45.85
20077;BME280;12348;42.710;23.378;2024-03-06T10:15:14;94976.66;;;19.13;44.96
20077;BME280;12348;42.710;23.378;2024-03-06T10:17:41;94975.50;;;19.58;44.92
20077;BME280;12348;42.710;23.378;2024-03-06T10:20:22;94978.84;;;20.46;42.94
20077;BME280;12348;42.710;23.378;2024-03-06T10:22:50;94977.72;;;20.47;43.14
20077;BME280;12348;42.710;23.378;2024-03-06T10:25:21;94975.56;;;21.11;41.58
20077;BME280;12348;42.710;23.378;2024-03-06T10:28:03;94972.97;;;19.21;44.24
20077;BME280;12348;42.710;23.378;2024-03-06T10:30:31;94968.41;;;19.69;43.56
20077;BME280;12348;42.710;23.378;2024-03-06T10:32:58;94963.75;;;17.26;47.45
20077;BME280;12348;42.710;23.378;2024-03-06T10:35:26;94951.41;;;17.86;47.11
20077;BME280;12348;42.710;23.378;2024-03-06T10:37:54;94950.81;;;18.42;46.86
20077;BME280;12348;42.710;23.378;2024-03-06T10:40:22;94954.38;;;18.71;45.59
20077;BME280;12348;42.710;23.378;2024-03-06T10:42:49;94950.97;;;18.74;45.42
20077;BME280;12348;42.710;23.378;2024-03-06T10:45:16;94950.78;;;19.98;43.47
20077;BME280;12348;42.710;23.378;2024-03-06T10:47:46;94949.56;;;19.80;44.55
20077;BME280;12348;42.710;23.378;2024-03-06T10:50:14;94939.00;;;20.29;43.27
20077;BME280;12348;42.710;23.378;2024-03-06T10:52:44;94932.47;;;20.34;42.11
20077;BME280;12348;42.710;23.378;2024-03-06T10:55:13;94935.00;;;20.78;41.06
20077;BME280;12348;42.710;23.378;2024-03-06T10:57:42;94934.66;;;18.89;43.13
20077;BME280;12348;42.710;23.378;2024-03-06T11:00:10;94933.38;;;18.99;43.32
20077;BME280;12348;42.710;23.378;2024-03-06T11:02:44;94922.44;;;19.43;43.37
20077;BME280;12348;42.710;23.378;2024-03-06T11:05:14;94910.84;;;20.09;42.32
20077;BME280;12348;42.710;23.378;2024-03-06T11:07:41;94915.88;;;20.43;42.88
20077;BME280;12348;42.710;23.378;2024-03-06T11:10:10;94902.09;;;21.56;40.51
20077;BME280;12348;42.710;23.378;2024-03-06T11:12:42;94903.50;;;19.98;42.73
20077;BME280;12348;42.710;23.378;2024-03-06T11:15:13;94895.63;;;20.28;43.03
20077;BME280;12348;42.710;23.378;2024-03-06T11:17:40;94890.88;;;20.44;41.67
20077;BME280;12348;42.710;23.378;2024-03-06T11:20:16;94895.06;;;20.03;42.07
20077;BME280;12348;42.710;23.378;2024-03-06T11:23:02;94886.94;;;20.06;41.49
20077;BME280;12348;42.710;23.378;2024-03-06T11:26:02;94883.63;;;19.66;42.26
20077;BME280;12348;42.710;23.378;2024-03-06T11:28:30;94886.16;;;19.74;41.62
20077;BME280;12348;42.710;23.378;2024-03-06T11:30:57;94880.97;;;19.53;42.41
20077;BME280;12348;42.710;23.378;2024-03-06T11:33:28;94891.53;;;19.39;42.25
20077;BME280;12348;42.710;23.378;2024-03-06T11:36:19;94870.41;;;19.83;40.76
20077;BME280;12348;42.710;23.378;2024-03-06T11:38:52;94872.13;;;20.81;39.39
20077;BME280;12348;42.710;23.378;2024-03-06T11:41:22;94883.44;;;20.99;38.07
20077;BME280;12348;42.710;23.378;2024-03-06T11:43:50;94870.56;;;20.80;38.31
20077;BME280;12348;42.710;23.378;2024-03-06T11:46:19;94879.97;;;20.83;38.24
20077;BME280;12348;42.710;23.378;2024-03-06T11:48:52;94864.56;;;20.20;38.15
20077;BME280;12348;42.710;23.378;2024-03-06T11:51:19;94857.28;;;20.44;39.11
20077;BME280;12348;42.710;23.378;2024-03-06T11:53:49;94864.34;;;21.03;39.14
20077;BME280;12348;42.710;23.378;2024-03-06T11:56:17;94856.63;;;21.77;37.41
20077;BME280;12348;42.710;23.378;2024-03-06T11:58:46;94867.72;;;20.57;38.84
20077;BME280;12348;42.710;23.378;2024-03-06T12:01:13;94855.41;;;20.13;39.06
20077;BME280;12348;42.710;23.378;2024-03-06T12:03:41;94860.03;;;18.41;42.08
20077;BME280;12348;42.710;23.378;2024-03-06T12:06:08;94854.53;;;19.57;41.55
20077;BME280;12348;42.710;23.378;2024-03-06T12:08:35;94857.00;;;19.78;41.48
20077;BME280;12348;42.710;23.378;2024-03-06T12:11:02;94848.75;;;20.10;40.04
20077;BME280;12348;42.710;23.378;2024-03-06T12:13:30;94842.56;;;19.62;40.38
20077;BME280;12348;42.710;23.378;2024-03-06T12:15:58;94850.72;;;18.71;41.26
20077;BME280;12348;42.710;23.378;2024-03-06T12:18:24;94852.38;;;18.47;42.13
20077;BME280;12348;42.710;23.378;2024-03-06T12:20:51;94834.47;;;19.66;41.08
20077;BME280;12348;42.710;23.378;2024-03-06T12:23:21;94850.16;;;20.39;39.37
20077;BME280;12348;42.710;23.378;2024-03-06T12:25:48;94845.19;;;20.64;39.28
20077;BME280;12348;42.710;23.378;2024-03-06T12:28:15;94845.94;;;20.26;38.94
20077;BME280;12348;42.710;23.378;2024-03-06T12:30:43;94841.44;;;18.72;45.09
20077;BME280;12348;42.710;23.378;2024-03-06T12:33:16;94829.88;;;16.54;50.76
20077;BME280;12348;42.710;23.378;2024-03-06T12:35:42;94835.03;;;15.63;54.96
20077;BME280;12348;42.710;23.378;2024-03-06T12:38:13;94838.78;;;15.50;55.64
20077;BME280;12348;42.710;23.378;2024-03-06T12:40:40;94835.75;;;15.51;55.25
20077;BME280;12348;42.710;23.378;2024-03-06T12:43:07;94834.00;;;15.17;55.71
20077;BME280;12348;42.710;23.378;2024-03-06T12:45:36;94826.34;;;14.72;56.03
20077;BME280;12348;42.710;23.378;2024-03-06T12:48:03;94824.97;;;14.05;58.80
20077;BME280;12348;42.710;23.378;2024-03-06T12:50:33;94825.75;;;14.06;59.22
20077;BME280;12348;42.710;23.378;2024-03-06T12:52:59;94838.34;;;14.19;60.16